createdAt,value
2018-07-04T19:24:43.600Z,180
2018-07-04T19:26:01.787Z,164
2018-07-04T19:27:16.503Z,152
2018-07-04T19:28:31.341Z,136
2018-07-04T19:29:45.989Z,128
2018-07-04T19:31:00.964Z,116
2018-07-04T19:32:15.777Z,108
2018-07-04T19:33:30.537Z,100
2018-07-04T19:34:45.685Z,92
2018-07-04T19:36:01.023Z,88
2018-07-04T19:37:15.904Z,80
2018-07-04T19:38:31.242Z,72
2018-07-04T19:39:45.440Z,68
2018-07-04T19:41:00.721Z,60
2018-07-04T19:42:15.929Z,52
2018-07-04T19:43:32.068Z,48
2018-07-04T19:44:47.688Z,40
2018-07-04T19:46:03.093Z,36
2018-07-04T19:47:17.851Z,32
2018-07-04T19:48:32.714Z,28
2018-07-04T19:49:47.472Z,24
2018-07-04T19:51:02.664Z,20
2018-07-04T19:52:17.590Z,20
2018-07-04T19:53:32.462Z,16
2018-07-04T19:54:47.689Z,12
2018-07-04T19:56:02.856Z,12
2018-07-04T19:57:17.759Z,12
2018-07-04T19:58:32.456Z,12
2018-07-04T19:59:47.019Z,8
2018-07-04T20:01:01.540Z,4
2018-07-04T20:02:16.037Z,4
2018-07-04T20:03:30.778Z,8
2018-07-04T20:04:44.801Z,4
2018-07-04T20:05:59.350Z,0
2018-07-04T20:07:13.918Z,4
2018-07-04T20:08:28.519Z,4
2018-07-04T20:09:43.035Z,0
2018-07-04T20:10:57.615Z,4
2018-07-04T20:12:11.968Z,4
2018-07-04T20:13:26.627Z,0
2018-07-04T20:14:41.201Z,0
2018-07-04T20:15:55.782Z,0
2018-07-04T20:17:10.338Z,0
2018-07-04T20:18:25.800Z,0
2018-07-04T20:19:39.925Z,0
2018-07-04T20:20:54.296Z,0
2018-07-04T20:22:09.047Z,0
2018-07-04T20:23:24.300Z,0
2018-07-04T20:24:38.547Z,0
2018-07-04T20:25:53.829Z,0
2018-07-04T20:27:08.643Z,0
2018-07-04T20:28:27.140Z,0
2018-07-04T20:29:41.558Z,0
2018-07-04T20:30:55.963Z,0
2018-07-04T20:32:10.226Z,0
2018-07-04T20:33:24.499Z,0
2018-07-04T20:34:38.874Z,0
2018-07-04T20:35:53.901Z,0
2018-07-04T20:37:08.474Z,0
2018-07-04T20:38:24.504Z,0
2018-07-04T20:39:39.059Z,0
2018-07-04T20:40:53.699Z,0
2018-07-04T20:42:08.034Z,0
2018-07-04T20:43:23.208Z,0
2018-07-04T20:44:40.093Z,0
2018-07-04T20:45:54.693Z,0
2018-07-04T20:47:09.142Z,0
2018-07-04T20:48:24.694Z,0
2018-07-04T20:49:39.534Z,0
2018-07-04T20:50:54.187Z,0
2018-07-04T20:52:08.522Z,0
2018-07-04T20:53:23.152Z,0
2018-07-04T20:54:38.415Z,0
2018-07-04T20:55:53.592Z,0
2018-07-04T20:57:08.110Z,0
2018-07-04T20:58:22.441Z,0
2018-07-04T20:59:36.761Z,0
2018-07-04T21:00:51.155Z,0
2018-07-04T21:02:05.694Z,0
2018-07-04T21:03:19.587Z,0
2018-07-04T21:04:34.387Z,0
2018-07-04T21:05:49.646Z,0
2018-07-04T21:07:05.298Z,0
2018-07-04T21:08:19.863Z,0
2018-07-04T21:09:35.903Z,0
2018-07-04T21:10:51.210Z,0
2018-07-04T21:12:05.713Z,0
2018-07-04T21:13:19.950Z,0
2018-07-04T21:14:34.769Z,0
2018-07-04T21:15:49.517Z,0
2018-07-04T21:17:04.773Z,0
2018-07-04T21:18:19.571Z,0
2018-07-04T21:19:34.883Z,0
2018-07-04T21:20:50.111Z,0
2018-07-04T21:22:04.988Z,0
2018-07-04T21:23:20.301Z,0
2018-07-04T21:24:34.946Z,0
2018-07-04T21:25:49.744Z,0
2018-07-04T21:27:04.481Z,0
2018-07-04T21:28:19.631Z,0
2018-07-04T21:29:34.449Z,0
2018-07-04T21:30:49.418Z,0
2018-07-04T21:32:04.430Z,0
2018-07-04T21:33:19.033Z,0
2018-07-04T21:34:33.768Z,0
2018-07-04T21:35:48.309Z,0
2018-07-04T21:37:03.159Z,0
2018-07-04T21:38:17.406Z,0
2018-07-04T21:39:31.882Z,0
2018-07-04T21:40:46.879Z,0
2018-07-04T21:42:01.676Z,0
2018-07-04T21:43:15.990Z,0
2018-07-04T21:44:30.531Z,0
2018-07-04T21:45:45.594Z,0
2018-07-04T21:46:59.683Z,0
2018-07-04T21:48:13.686Z,0
2018-07-04T21:49:28.534Z,0
2018-07-04T21:50:43.026Z,0
2018-07-04T21:51:58.230Z,0
2018-07-04T21:53:14.777Z,0
2018-07-04T21:54:29.032Z,0
2018-07-04T21:55:43.247Z,0
2018-07-04T21:56:57.854Z,0
2018-07-04T21:58:12.913Z,0
2018-07-04T21:59:27.914Z,0
2018-07-04T22:00:42.786Z,0
2018-07-04T22:01:57.629Z,0
2018-07-04T22:03:12.103Z,0
2018-07-04T22:04:27.266Z,0
2018-07-04T22:05:41.705Z,0
2018-07-04T22:06:56.513Z,0
2018-07-04T22:08:11.220Z,0
2018-07-04T22:09:25.680Z,0
2018-07-04T22:10:46.940Z,0
2018-07-04T22:12:02.204Z,0
2018-07-04T22:13:16.486Z,0
2018-07-04T22:14:31.606Z,0
2018-07-04T22:15:46.099Z,0
2018-07-04T22:17:01.819Z,0
2018-07-04T22:18:16.815Z,0
2018-07-04T22:19:31.308Z,0
2018-07-04T22:20:45.539Z,0
2018-07-04T22:21:59.510Z,0
2018-07-04T22:23:13.928Z,0
2018-07-04T22:24:28.875Z,0
2018-07-04T22:25:43.726Z,0
2018-07-04T22:26:57.926Z,0
2018-07-04T22:28:12.935Z,0
2018-07-04T22:29:27.950Z,0
2018-07-04T22:30:43.177Z,0
2018-07-04T22:31:57.687Z,0
2018-07-04T22:33:12.274Z,0
2018-07-04T22:34:26.500Z,0
2018-07-04T22:35:41.090Z,0
2018-07-04T22:36:57.083Z,0
2018-07-04T22:38:11.782Z,0
2018-07-04T22:39:26.229Z,0
2018-07-04T22:40:40.746Z,0
2018-07-04T22:41:54.970Z,0
2018-07-04T22:43:09.632Z,0
2018-07-04T22:44:24.141Z,0
2018-07-04T22:45:38.635Z,0
2018-07-04T22:46:53.380Z,0
2018-07-04T22:48:07.724Z,0
2018-07-04T22:49:23.239Z,0
2018-07-04T22:50:37.529Z,0
2018-07-04T22:51:51.992Z,0
2018-07-04T22:53:06.630Z,0
2018-07-04T22:54:21.083Z,0
2018-07-04T22:55:35.854Z,0
2018-07-04T22:56:50.824Z,0
2018-07-04T22:58:05.418Z,0
2018-07-04T22:59:20.115Z,0
2018-07-04T23:00:34.832Z,0
2018-07-04T23:01:49.029Z,0
2018-07-04T23:03:03.059Z,0
2018-07-04T23:04:17.040Z,0
2018-07-04T23:05:30.984Z,0
2018-07-04T23:06:45.459Z,0
2018-07-04T23:08:00.185Z,0
2018-07-04T23:09:15.087Z,0
2018-07-04T23:10:29.300Z,0
2018-07-04T23:11:44.302Z,0
2018-07-04T23:12:58.767Z,0
2018-07-04T23:14:13.028Z,0
2018-07-04T23:15:27.547Z,0
2018-07-04T23:16:42.290Z,0
2018-07-04T23:17:57.023Z,0
2018-07-04T23:19:11.601Z,0
2018-07-04T23:20:25.574Z,0
2018-07-04T23:21:40.623Z,0
2018-07-04T23:22:54.840Z,0
2018-07-04T23:24:10.140Z,0
2018-07-04T23:25:24.336Z,0
2018-07-04T23:26:39.077Z,0
2018-07-04T23:27:53.816Z,0
2018-07-04T23:29:08.384Z,0
2018-07-04T23:30:22.591Z,0
2018-07-04T23:31:36.304Z,0
2018-07-04T23:32:51.041Z,0
2018-07-04T23:34:05.764Z,0
2018-07-04T23:35:20.041Z,0
2018-07-04T23:36:34.291Z,0
2018-07-04T23:37:49.011Z,0
2018-07-04T23:39:03.790Z,0
2018-07-04T23:40:18.399Z,0
2018-07-04T23:41:33.154Z,0
2018-07-04T23:42:47.655Z,0
2018-07-04T23:44:02.380Z,0
2018-07-04T23:45:17.393Z,0
2018-07-04T23:46:32.617Z,0
2018-07-04T23:47:46.859Z,0
2018-07-04T23:49:01.329Z,0
2018-07-04T23:50:15.593Z,0
2018-07-04T23:51:30.380Z,0
2018-07-04T23:52:44.870Z,0
2018-07-04T23:53:59.321Z,0
2018-07-04T23:55:13.968Z,0
2018-07-04T23:56:28.673Z,0
2018-07-04T23:57:42.944Z,0
2018-07-04T23:58:57.177Z,0
